Time;durP1;ratioP1;P1;durP2;ratioP2;P2;SDS_P1;SDS_P2;PMS_P1;PMS_P2;Temp;Humidity;BMP_temperature;BMP_pressure;BME280_temperature;BME280_humidity;BME280_pressure;Samples;Min_cycle;Max_cycle;Signal;HPM_P1;HPM_P2
2021/06/11 00:00:27;;;;;;;9.45;6.78;;;20.20;99.90;;;;;;2054869;28;20452;-69
2021/06/11 00:01:28;;;;;;;6.10;5.53;;;20.20;99.90;;;;;;2054959;28;20111;-69
2021/06/11 00:02:29;;;;;;;6.28;5.68;;;20.20;99.90;;;;;;2060384;28;20034;-69
2021/06/11 00:03:29;;;;;;;10.43;5.88;;;20.10;99.90;;;;;;2062764;28;20033;-69
2021/06/11 00:04:30;;;;;;;6.90;5.80;;;20.10;99.90;;;;;;2062874;28;20030;-69
2021/06/11 00:05:30;;;;;;;5.80;5.30;;;20.10;99.90;;;;;;2063176;28;20034;-69
2021/06/11 00:06:31;;;;;;;7.00;6.30;;;20.10;99.90;;;;;;2061201;28;20037;-69
2021/06/11 00:07:33;;;;;;;6.38;5.82;;;20.10;99.90;;;;;;2054562;28;20026;-69
2021/06/11 00:08:34;;;;;;;5.22;4.82;;;20.10;99.90;;;;;;2054496;28;20022;-69
2021/06/11 00:09:34;;;;;;;6.80;6.00;;;20.00;99.90;;;;;;2055155;28;20058;-69
2021/06/11 00:10:36;;;;;;;5.50;5.10;;;20.00;99.90;;;;;;2054800;28;20494;-69
2021/06/11 00:11:36;;;;;;;6.07;5.22;;;20.00;99.90;;;;;;2057580;28;20057;-69
2021/06/11 00:12:38;;;;;;;6.00;5.50;;;20.00;99.90;;;;;;2063034;28;20031;-69
2021/06/11 00:13:40;;;;;;;6.30;5.43;;;20.00;99.90;;;;;;2063111;28;20031;-69
2021/06/11 00:14:41;;;;;;;5.55;4.90;;;20.00;99.90;;;;;;2062789;28;20027;-69
2021/06/11 00:15:42;;;;;;;5.47;4.97;;;20.00;99.90;;;;;;2063030;28;20019;-69
2021/06/11 00:16:43;;;;;;;6.03;4.53;;;20.00;99.90;;;;;;2062962;28;20019;-69
2021/06/11 00:17:43;;;;;;;5.63;5.00;;;19.90;99.70;;;;;;2062031;28;20071;-69
2021/06/11 00:18:44;;;;;;;6.25;5.75;;;19.90;99.90;;;;;;2062014;28;20027;-69
2021/06/11 00:19:45;;;;;;;6.18;5.55;;;19.90;99.90;;;;;;2059809;28;20545;-69
2021/06/11 00:20:45;;;;;;;7.22;5.82;;;19.90;99.90;;;;;;2054923;28;20381;-69
2021/06/11 00:21:46;;;;;;;5.15;4.75;;;19.90;99.90;;;;;;2054345;28;20114;-69
2021/06/11 00:22:47;;;;;;;5.97;5.47;;;19.90;99.90;;;;;;2054745;28;20363;-69
2021/06/11 00:23:47;;;;;;;5.35;4.95;;;19.90;99.90;;;;;;2055032;28;20023;-69
2021/06/11 00:24:48;;;;;;;6.00;5.00;;;19.90;99.90;;;;;;2055047;28;20467;-69
2021/06/11 00:25:49;;;;;;;6.43;5.70;;;19.90;99.90;;;;;;2054827;28;20027;-69
2021/06/11 00:26:50;;;;;;;5.65;5.15;;;19.80;99.90;;;;;;2055063;28;20686;-69
2021/06/11 00:27:51;;;;;;;6.93;6.28;;;19.80;99.90;;;;;;2057949;28;20357;-69
2021/06/11 00:28:52;;;;;;;6.10;5.57;;;19.80;99.90;;;;;;2062996;28;20022;-69
2021/06/11 00:29:53;;;;;;;6.85;6.25;;;19.80;99.90;;;;;;2063067;28;20022;-69
2021/06/11 00:30:53;;;;;;;6.32;5.72;;;19.80;99.90;;;;;;2063031;28;20386;-69
2021/06/11 00:31:54;;;;;;;6.32;5.65;;;19.70;99.90;;;;;;2062347;28;20050;-69
2021/06/11 00:32:55;;;;;;;5.25;4.75;;;19.80;99.90;;;;;;2062528;28;20038;-69
2021/06/11 00:33:56;;;;;;;5.15;4.75;;;19.70;99.90;;;;;;2062499;28;20106;-69
2021/06/11 00:34:57;;;;;;;5.68;5.18;;;19.80;99.90;;;;;;2062681;28;20031;-69
2021/06/11 00:35:58;;;;;;;8.18;5.57;;;19.70;99.90;;;;;;2062846;28;20113;-69
2021/06/11 00:36:58;;;;;;;7.22;5.85;;;19.70;99.90;;;;;;2062995;28;20037;-69
2021/06/11 00:37:59;;;;;;;6.88;5.57;;;19.70;99.90;;;;;;2056035;28;20038;-69
2021/06/11 00:39:00;;;;;;;5.63;5.13;;;19.70;99.90;;;;;;2060733;28;20027;-69
2021/06/11 00:40:03;;;;;;;6.68;6.05;;;19.70;99.90;;;;;;2054885;28;20111;-69
2021/06/11 00:41:04;;;;;;;6.18;5.63;;;19.70;99.90;;;;;;2054947;28;20864;-69
2021/06/11 00:42:05;;;;;;;5.82;5.30;;;19.60;99.90;;;;;;2054084;28;20043;-69
2021/06/11 00:43:11;;;;;;;6.40;5.78;;;19.60;99.90;;;;;;2055048;28;20513;-69
2021/06/11 00:44:12;;;;;;;7.95;6.18;;;19.60;99.90;;;;;;2054556;28;20508;-69
2021/06/11 00:45:13;;;;;;;5.25;4.72;;;19.60;99.90;;;;;;2054931;28;20654;-69
2021/06/11 00:46:13;;;;;;;6.13;5.53;;;19.60;99.90;;;;;;2056173;28;20030;-69
2021/06/11 00:47:14;;;;;;;5.35;4.78;;;19.60;99.90;;;;;;2062870;28;20050;-69
2021/06/11 00:48:15;;;;;;;6.47;5.88;;;19.60;99.90;;;;;;2062471;28;20041;-69
2021/06/11 00:49:16;;;;;;;5.88;5.38;;;19.50;99.90;;;;;;2062080;28;20041;-69
2021/06/11 00:50:20;;;;;;;5.60;5.10;;;19.50;99.90;;;;;;2062600;28;20027;-69
2021/06/11 00:51:22;;;;;;;9.63;6.43;;;19.50;99.90;;;;;;2062803;28;20022;-69
2021/06/11 00:52:23;;;;;;;6.05;5.45;;;19.50;99.90;;;;;;2062399;28;20033;-68
2021/06/11 00:53:24;;;;;;;5.35;4.95;;;19.50;99.90;;;;;;2062811;28;20075;-69
2021/06/11 00:54:25;;;;;;;6.50;5.90;;;19.50;99.90;;;;;;2062663;28;20351;-69
2021/06/11 00:55:25;;;;;;;5.75;5.15;;;19.50;99.90;;;;;;2062941;28;20036;-69
2021/06/11 00:56:26;;;;;;;6.88;5.35;;;19.50;99.90;;;;;;2062746;28;20073;-69
2021/06/11 00:57:27;;;;;;;5.60;5.10;;;19.40;99.90;;;;;;2062148;28;20031;-68
2021/06/11 00:58:28;;;;;;;6.20;4.47;;;19.40;99.90;;;;;;2061832;28;20097;-69
2021/06/11 00:59:29;;;;;;;5.20;4.80;;;19.40;99.90;;;;;;2062869;28;20027;-69
2021/06/11 01:00:30;;;;;;;6.55;5.00;;;19.40;99.90;;;;;;2062480;28;20117;-69
2021/06/11 01:01:31;;;;;;;7.53;5.40;;;19.40;99.90;;;;;;2061402;28;20505;-69
2021/06/11 01:02:31;;;;;;;5.63;5.13;;;19.40;99.90;;;;;;2054679;28;20038;-69
2021/06/11 01:03:32;;;;;;;7.45;5.95;;;19.40;99.90;;;;;;2054561;28;20080;-69
2021/06/11 01:04:32;;;;;;;5.53;5.03;;;19.30;99.90;;;;;;2054674;28;20027;-69
2021/06/11 01:05:34;;;;;;;6.28;5.72;;;19.30;99.90;;;;;;2054643;28;20031;-69
2021/06/11 01:06:37;;;;;;;6.50;5.68;;;19.30;99.90;;;;;;2060938;28;20053;-69
2021/06/11 01:07:40;;;;;;;8.95;5.43;;;19.30;99.90;;;;;;2067498;28;20124;-69
2021/06/11 01:08:41;;;;;;;6.82;5.72;;;19.30;99.90;;;;;;2069485;28;20041;-69
2021/06/11 01:09:43;;;;;;;5.97;5.00;;;19.30;99.90;;;;;;2069006;28;20029;-69
2021/06/11 01:10:45;;;;;;;5.43;4.93;;;19.30;99.90;;;;;;2062469;28;20026;-69
2021/06/11 01:11:45;;;;;;;5.57;5.10;;;19.30;99.90;;;;;;2062066;28;20025;-69
2021/06/11 01:12:48;;;;;;;5.72;5.22;;;19.30;99.90;;;;;;2062403;28;20041;-69
2021/06/11 01:13:48;;;;;;;8.05;5.57;;;19.30;99.90;;;;;;2062718;28;20031;-69
2021/06/11 01:14:50;;;;;;;6.80;5.85;;;19.30;99.90;;;;;;2058664;28;20107;-69
2021/06/11 01:15:51;;;;;;;8.63;6.25;;;19.20;99.90;;;;;;2054741;28;20069;-69
2021/06/11 01:16:52;;;;;;;6.63;5.88;;;19.20;99.90;;;;;;2054632;28;20068;-69
2021/06/11 01:17:54;;;;;;;5.93;5.43;;;19.20;99.90;;;;;;2054649;28;20064;-69
2021/06/11 01:18:54;;;;;;;5.45;5.05;;;19.20;99.90;;;;;;2054761;28;20043;-69
2021/06/11 01:19:55;;;;;;;7.78;5.88;;;19.20;99.90;;;;;;2054359;28;20080;-69
2021/06/11 01:20:55;;;;;;;5.32;4.82;;;19.10;99.90;;;;;;2054490;28;20027;-69
2021/06/11 01:22:07;;;;;;;5.68;5.18;;;19.10;99.90;;;;;;2057220;28;20079;-69
2021/06/11 01:23:37;;;;;;;5.97;5.47;;;19.10;99.90;;;;;;2057570;28;20065;-69
2021/06/11 01:24:45;;;;;;;;;;;19.10;99.90;;;;;;2055194;28;20105;-69
2021/06/11 01:26:18;;;;;;;6.13;5.53;;;19.00;99.90;;;;;;2054330;28;20004;-69
2021/06/11 01:27:20;;;;;;;5.70;5.20;;;19.00;99.90;;;;;;2054524;28;20030;-69
2021/06/11 01:28:22;;;;;;;7.28;5.15;;;19.00;99.90;;;;;;2061561;28;20088;-69
2021/06/11 01:29:26;;;;;;;7.03;6.07;;;18.90;99.90;;;;;;2061885;28;20556;-69
2021/06/11 01:30:26;;;;;;;6.05;5.40;;;18.90;99.90;;;;;;2057966;28;20065;-69
2021/06/11 01:31:30;;;;;;;5.03;4.63;;;18.90;99.90;;;;;;2053095;28;20595;-69
2021/06/11 01:32:32;;;;;;;4.57;4.18;;;18.90;99.90;;;;;;2059654;28;20029;-69
2021/06/11 01:33:35;;;;;;;6.75;6.05;;;19.00;99.90;;;;;;2077560;28;20024;-69
2021/06/11 01:34:38;;;;;;;5.43;4.93;;;18.90;99.90;;;;;;2071794;28;20090;-69
2021/06/11 01:35:45;;;;;;;5.53;5.13;;;19.00;99.90;;;;;;2062108;28;20466;-69
2021/06/11 01:36:49;;;;;;;5.13;4.72;;;18.90;99.90;;;;;;2062679;28;20075;-69
2021/06/11 01:37:57;;;;;;;6.70;5.20;;;19.00;99.90;;;;;;2056511;28;20023;-69
2021/06/11 01:39:00;;;;;;;5.82;5.25;;;18.90;99.90;;;;;;2084465;28;20025;-69
2021/06/11 01:40:05;;;;;;;4.97;4.50;;;18.90;99.90;;;;;;2061769;28;20026;-69
2021/06/11 01:41:12;;;;;;;5.47;4.97;;;18.90;99.90;;;;;;2060211;28;20035;-69
2021/06/11 01:42:14;;;;;;;6.22;5.72;;;18.90;99.90;;;;;;2061925;28;20030;-69
2021/06/11 01:43:17;;;;;;;8.98;6.90;;;18.80;99.90;;;;;;2062633;28;20026;-69
2021/06/11 01:44:18;;;;;;;9.35;5.78;;;18.90;99.90;;;;;;2062331;28;20022;-69
2021/06/11 01:45:19;;;;;;;6.25;5.65;;;18.80;99.90;;;;;;2062236;28;20034;-69
2021/06/11 01:46:23;;;;;;;5.68;5.18;;;18.80;99.90;;;;;;2062438;28;20038;-69
2021/06/11 01:47:25;;;;;;;6.13;5.53;;;18.80;99.90;;;;;;2058131;28;20045;-69
2021/06/11 01:48:28;;;;;;;6.13;5.50;;;18.80;99.90;;;;;;2061402;28;20041;-69
2021/06/11 01:49:29;;;;;;;6.60;6.00;;;18.80;99.90;;;;;;2054114;28;20034;-69
2021/06/11 01:50:33;;;;;;;6.50;5.68;;;18.70;99.90;;;;;;2053661;28;20072;-69
2021/06/11 01:51:36;;;;;;;6.88;6.28;;;18.80;99.90;;;;;;2053574;28;20022;-69
2021/06/11 01:52:37;;;;;;;7.93;5.78;;;18.70;99.90;;;;;;2058439;28;20061;-69
2021/06/11 01:53:41;;;;;;;6.63;5.90;;;18.70;99.90;;;;;;2060781;28;20037;-69
2021/06/11 01:54:43;;;;;;;9.32;5.65;;;18.80;99.90;;;;;;2059503;28;20043;-69
2021/06/11 01:55:46;;;;;;;5.25;4.80;;;18.70;99.90;;;;;;2103991;28;20020;-69
2021/06/11 01:56:48;;;;;;;6.90;5.32;;;18.70;99.90;;;;;;2101981;28;20093;-69
2021/06/11 01:57:48;;;;;;;5.80;5.30;;;18.70;99.90;;;;;;2060644;28;20509;-69
2021/06/11 01:58:50;;;;;;;6.97;6.38;;;18.70;99.90;;;;;;2061000;28;20435;-69
2021/06/11 01:59:52;;;;;;;10.25;7.15;;;18.70;99.90;;;;;;2061627;28;20117;-69
2021/06/11 02:00:54;;;;;;;6.55;6.05;;;18.70;99.90;;;;;;2053896;28;20366;-69
2021/06/11 02:01:56;;;;;;;7.15;6.53;;;18.70;99.90;;;;;;2058778;28;20026;-69
2021/06/11 02:02:57;;;;;;;11.55;6.05;;;18.60;99.90;;;;;;2062541;28;20532;-69
2021/06/11 02:03:59;;;;;;;6.68;6.07;;;18.60;99.90;;;;;;2056320;28;20035;-69
2021/06/11 02:05:00;;;;;;;7.15;5.32;;;18.60;99.90;;;;;;2062367;28;20137;-69
2021/06/11 02:06:02;;;;;;;5.90;5.40;;;18.60;99.90;;;;;;2054825;28;20117;-69
2021/06/11 02:07:08;;;;;;;6.05;5.07;;;18.60;99.90;;;;;;2062610;28;20031;-69
2021/06/11 02:08:09;;;;;;;7.63;5.53;;;18.60;99.90;;;;;;2063089;28;20109;-69
2021/06/11 02:09:10;;;;;;;9.57;5.88;;;18.60;99.90;;;;;;2062929;28;20125;-69
2021/06/11 02:10:12;;;;;;;6.90;6.30;;;18.60;99.90;;;;;;2063459;28;20109;-69
2021/06/11 02:11:13;;;;;;;6.72;6.13;;;18.50;99.90;;;;;;2062641;28;20026;-69
2021/06/11 02:12:14;;;;;;;7.00;6.40;;;18.60;99.90;;;;;;2062285;28;20029;-68
2021/06/11 02:13:15;;;;;;;7.57;6.50;;;18.50;99.90;;;;;;2060122;28;20148;-68
2021/06/11 02:14:16;;;;;;;8.90;6.53;;;18.50;99.90;;;;;;2055583;28;20073;-68
2021/06/11 02:15:17;;;;;;;7.28;6.63;;;18.50;99.90;;;;;;2055352;28;20023;-69
2021/06/11 02:16:19;;;;;;;6.53;6.00;;;18.50;99.90;;;;;;2055687;28;20029;-69
2021/06/11 02:17:22;;;;;;;5.80;5.22;;;18.50;99.90;;;;;;2055293;28;20054;-69
2021/06/11 02:18:23;;;;;;;6.85;5.13;;;18.50;99.90;;;;;;2055694;28;20462;-68
2021/06/11 02:19:24;;;;;;;6.70;5.97;;;18.50;99.90;;;;;;2055322;28;20039;-68
2021/06/11 02:20:26;;;;;;;7.05;6.25;;;18.40;99.90;;;;;;2055797;28;20027;-69
2021/06/11 02:21:28;;;;;;;7.82;7.03;;;18.40;99.90;;;;;;2055097;28;20147;-69
2021/06/11 02:22:28;;;;;;;7.47;6.78;;;18.40;99.90;;;;;;2055393;28;20034;-69
2021/06/11 02:23:30;;;;;;;6.97;6.28;;;18.40;99.90;;;;;;2055474;28;20530;-69
2021/06/11 02:24:32;;;;;;;6.28;5.80;;;18.40;99.90;;;;;;2055449;28;20035;-69
2021/06/11 02:25:33;;;;;;;8.95;6.07;;;18.40;99.90;;;;;;2058161;28;20045;-69
2021/06/11 02:26:35;;;;;;;7.38;6.18;;;18.40;99.90;;;;;;2064597;28;20049;-69
2021/06/11 02:27:38;;;;;;;4.95;4.55;;;18.40;99.90;;;;;;2063353;28;20026;-69
2021/06/11 02:28:39;;;;;;;6.85;6.25;;;18.40;99.90;;;;;;2065106;28;20138;-69
2021/06/11 02:29:39;;;;;;;7.22;6.53;;;18.30;99.90;;;;;;2066052;28;20019;-69
2021/06/11 02:30:40;;;;;;;7.25;6.65;;;18.40;99.90;;;;;;2063288;28;20037;-69
2021/06/11 02:31:41;;;;;;;7.82;5.53;;;18.30;99.90;;;;;;2062668;28;20027;-69
2021/06/11 02:32:41;;;;;;;6.43;5.93;;;18.30;99.90;;;;;;2063619;28;20163;-69
2021/06/11 02:33:42;;;;;;;7.25;6.55;;;18.30;99.90;;;;;;2063344;28;20462;-69
2021/06/11 02:34:43;;;;;;;7.90;7.18;;;18.20;99.90;;;;;;2063425;28;20058;-69
2021/06/11 02:35:43;;;;;;;10.82;7.18;;;18.30;99.90;;;;;;2063220;28;20041;-68
2021/06/11 02:36:44;;;;;;;6.80;6.05;;;18.20;99.90;;;;;;2063409;28;20025;-68
2021/06/11 02:37:45;;;;;;;7.32;6.63;;;18.20;99.90;;;;;;2057817;28;20027;-68
2021/06/11 02:38:46;;;;;;;8.57;6.82;;;18.20;99.90;;;;;;2060632;28;20361;-68
2021/06/11 02:39:46;;;;;;;6.55;5.90;;;18.20;99.90;;;;;;2062586;28;20054;-68
2021/06/11 02:40:49;;;;;;;6.45;5.80;;;18.20;99.90;;;;;;2063499;28;20819;-68
2021/06/11 02:42:05;;;;;;;5.25;4.80;;;18.20;99.90;;;;;;2062832;28;20022;-68
2021/06/11 02:43:08;;;;;;;7.95;6.63;;;18.20;99.90;;;;;;2063619;28;20041;-68
2021/06/11 02:44:11;;;;;;;5.57;5.07;;;18.20;99.90;;;;;;2063137;28;20362;-68
2021/06/11 02:45:15;;;;;;;7.15;6.55;;;18.20;99.90;;;;;;2063395;28;20386;-68
2021/06/11 02:46:39;;;;;;;6.53;5.93;;;18.20;99.90;;;;;;2055030;28;20034;-68
2021/06/11 02:48:09;;;;;;;7.90;6.45;;;18.10;99.90;;;;;;2056678;28;20445;-68
2021/06/11 02:49:27;;;;;;;8.07;7.22;;;18.10;99.90;;;;;;2063618;28;20027;-68
2021/06/11 02:50:38;;;;;;;8.27;7.35;;;18.10;99.90;;;;;;2063181;28;20032;-68
2021/06/11 02:51:48;;;;;;;6.32;5.72;;;18.00;99.90;;;;;;2063112;28;20027;-68
2021/06/11 02:52:56;;;;;;;6.10;5.50;;;18.00;99.90;;;;;;2062837;28;20014;-68
2021/06/11 02:53:58;;;;;;;6.18;5.68;;;18.00;99.90;;;;;;2057958;28;20022;-68
2021/06/11 02:55:03;;;;;;;7.25;5.97;;;18.00;99.90;;;;;;2060530;28;20072;-68
2021/06/11 02:56:12;;;;;;;7.68;6.68;;;18.00;99.90;;;;;;2063236;28;20026;-68
2021/06/11 02:57:22;;;;;;;7.50;6.80;;;18.00;99.90;;;;;;2063303;28;20022;-68
2021/06/11 02:58:27;;;;;;;9.93;6.97;;;18.00;99.90;;;;;;2063042;28;20510;-68
2021/06/11 02:59:38;;;;;;;10.50;6.25;;;18.00;99.90;;;;;;2063397;28;20775;-68
2021/06/11 03:00:41;;;;;;;7.95;6.38;;;17.90;99.90;;;;;;2063383;28;20050;-68
2021/06/11 03:01:54;;;;;;;7.85;7.15;;;18.00;99.90;;;;;;2062118;28;20014;-68
2021/06/11 03:03:17;;;;;;;6.28;5.78;;;18.00;99.90;;;;;;2062427;28;20034;-68
2021/06/11 03:04:19;;;;;;;7.97;7.18;;;17.90;99.90;;;;;;2062323;28;20041;-68
2021/06/11 03:05:22;;;;;;;7.13;6.53;;;17.90;99.90;;;;;;2062313;28;20058;-68
2021/06/11 03:06:23;;;;;;;6.95;6.25;;;17.90;99.90;;;;;;2060066;28;20130;-68
2021/06/11 03:07:28;;;;;;;7.07;6.15;;;17.90;99.90;;;;;;2056960;28;20493;-68
2021/06/11 03:08:32;;;;;;;6.85;5.80;;;17.90;99.90;;;;;;2062237;28;20107;-68
2021/06/11 03:09:34;;;;;;;7.97;6.85;;;17.90;99.90;;;;;;2061006;28;20529;-68
2021/06/11 03:10:37;;;;;;;7.75;7.05;;;17.90;99.90;;;;;;2054148;28;20073;-68
2021/06/11 03:11:40;;;;;;;7.32;6.72;;;17.90;99.90;;;;;;2053136;28;20019;-68
2021/06/11 03:12:45;;;;;;;7.05;6.45;;;17.90;99.90;;;;;;2055445;28;20489;-68
2021/06/11 03:13:48;;;;;;;8.85;7.22;;;17.90;99.90;;;;;;2054911;28;20027;-68
2021/06/11 03:14:49;;;;;;;7.93;7.15;;;17.90;99.90;;;;;;2058808;28;20019;-68
2021/06/11 03:15:51;;;;;;;7.68;6.97;;;17.90;99.90;;;;;;2063431;28;20107;-68
2021/06/11 03:16:57;;;;;;;8.13;6.95;;;17.80;99.90;;;;;;2063513;28;20021;-68
2021/06/11 03:18:08;;;;;;;6.82;6.22;;;17.90;99.90;;;;;;2063081;28;20109;-68
2021/06/11 03:19:10;;;;;;;;;;;17.90;99.90;;;;;;2063726;28;20041;-68
2021/06/11 03:20:13;;;;;;;7.32;6.63;;;17.70;99.90;;;;;;2056087;28;19914;-68
2021/06/11 03:21:20;;;;;;;7.03;6.40;;;17.80;99.90;;;;;;2055247;28;20031;-68
2021/06/11 03:22:27;;;;;;;7.95;7.07;;;17.80;99.90;;;;;;2054839;28;20026;-68
2021/06/11 03:23:33;;;;;;;7.65;6.80;;;17.80;99.90;;;;;;2054969;28;20031;-68
2021/06/11 03:24:57;;;;;;;8.50;7.60;;;17.80;99.90;;;;;;2055273;28;20081;-68
2021/06/11 03:26:01;;;;;;;7.80;6.95;;;17.80;99.90;;;;;;2054990;28;20114;-68
2021/06/11 03:27:12;;;;;;;12.13;6.75;;;17.80;99.90;;;;;;2055464;28;20023;-68
2021/06/11 03:28:19;;;;;;;8.05;7.35;;;17.70;99.90;;;;;;2055419;28;20814;-68
2021/06/11 03:29:31;;;;;;;8.27;6.68;;;17.80;99.90;;;;;;2055338;28;20038;-68
2021/06/11 03:30:33;;;;;;;7.72;7.03;;;17.80;99.90;;;;;;2055022;28;20031;-68
2021/06/11 03:31:39;;;;;;;6.57;5.97;;;17.70;99.90;;;;;;2057853;28;20022;-68
2021/06/11 03:32:48;;;;;;;7.60;6.90;;;17.80;99.90;;;;;;2063513;28;20105;-68
2021/06/11 03:33:56;;;;;;;9.52;7.57;;;17.80;99.90;;;;;;2063378;28;20122;-68
2021/06/11 03:35:07;;;;;;;8.77;7.97;;;17.70;99.90;;;;;;2062399;28;20091;-68
2021/06/11 03:36:17;;;;;;;8.45;7.75;;;17.70;99.90;;;;;;2060496;28;20049;-68
2021/06/11 03:37:20;;;;;;;8.63;7.72;;;17.70;99.90;;;;;;2062889;28;20030;-68
2021/06/11 03:38:25;;;;;;;9.20;8.30;;;17.70;99.90;;;;;;2062784;28;20033;-68
2021/06/11 03:39:30;;;;;;;11.00;8.82;;;17.70;99.90;;;;;;2057094;28;20710;-68
2021/06/11 03:40:37;;;;;;;8.90;7.75;;;17.70;99.90;;;;;;2055069;28;20139;-68
2021/06/11 03:41:38;;;;;;;6.88;6.25;;;17.70;99.90;;;;;;2054020;28;20023;-68
2021/06/11 03:42:40;;;;;;;8.63;7.18;;;17.70;99.90;;;;;;2060685;28;20037;-68
2021/06/11 03:43:41;;;;;;;8.98;8.02;;;17.70;99.90;;;;;;2062272;28;20068;-68
2021/06/11 03:44:43;;;;;;;11.80;7.80;;;17.70;99.90;;;;;;2059957;28;20030;-68
2021/06/11 03:45:45;;;;;;;10.45;8.45;;;17.70;99.90;;;;;;2058492;28;20019;-68
2021/06/11 03:46:47;;;;;;;10.98;8.93;;;17.70;99.90;;;;;;2055087;28;20075;-68
2021/06/11 03:47:48;;;;;;;9.20;8.38;;;17.70;99.90;;;;;;2062233;28;20014;-68
2021/06/11 03:48:52;;;;;;;9.20;8.27;;;17.70;99.90;;;;;;2062424;28;20054;-68
2021/06/11 03:49:56;;;;;;;7.75;7.05;;;17.80;99.90;;;;;;2055207;28;20023;-68
2021/06/11 03:50:58;;;;;;;7.45;6.75;;;17.80;99.90;;;;;;2066221;28;20493;-68
2021/06/11 03:51:59;;;;;;;11.93;8.88;;;17.80;99.90;;;;;;2062092;28;20128;-68
2021/06/11 03:53:02;;;;;;;10.98;9.25;;;17.80;99.90;;;;;;2055126;28;20088;-68
2021/06/11 03:54:07;;;;;;;8.80;7.90;;;17.80;99.90;;;;;;2061111;28;20481;-68
2021/06/11 03:55:14;;;;;;;8.30;7.38;;;17.80;99.90;;;;;;2062940;28;20106;-68
2021/06/11 03:56:17;;;;;;;9.88;8.88;;;17.80;99.90;;;;;;2055190;28;20019;-68
2021/06/11 03:57:20;;;;;;;9.80;8.55;;;17.80;99.90;;;;;;2061157;28;20359;-68
2021/06/11 03:58:27;;;;;;;10.90;8.52;;;17.80;99.90;;;;;;2061231;28;20033;-68
2021/06/11 03:59:32;;;;;;;9.55;8.57;;;17.80;99.90;;;;;;2055082;28;20027;-68
2021/06/11 04:00:34;;;;;;;11.45;9.23;;;17.90;99.90;;;;;;2060194;28;20026;-68
2021/06/11 04:01:42;;;;;;;9.95;8.68;;;17.90;99.90;;;;;;2061825;28;20042;-68
2021/06/11 04:02:42;;;;;;;8.48;7.22;;;17.90;99.90;;;;;;2062693;28;20026;-68
2021/06/11 04:03:44;;;;;;;8.88;7.88;;;17.90;99.90;;;;;;2062006;28;20529;-68
2021/06/11 04:04:44;;;;;;;9.18;8.30;;;18.00;99.90;;;;;;2061397;28;20575;-68
2021/06/11 04:05:45;;;;;;;13.85;9.00;;;18.00;99.90;;;;;;2055100;28;20023;-68
2021/06/11 04:06:55;;;;;;;10.48;8.73;;;18.10;99.90;;;;;;2054987;28;20161;-68
2021/06/11 04:07:57;;;;;;;9.55;8.45;;;18.10;99.90;;;;;;2054792;28;20026;-68
2021/06/11 04:09:05;;;;;;;9.07;8.02;;;18.10;99.90;;;;;;2054882;28;20019;-68
2021/06/11 04:10:15;;;;;;;14.70;9.25;;;18.20;99.90;;;;;;2055218;28;20084;-68
2021/06/11 04:11:29;;;;;;;9.18;8.38;;;18.30;99.90;;;;;;2055158;28;20113;-68
2021/06/11 04:12:36;;;;;;;10.30;8.63;;;18.40;99.90;;;;;;2062604;28;20034;-68
2021/06/11 04:13:51;;;;;;;11.50;8.43;;;18.50;99.90;;;;;;2055302;28;20858;-68
2021/06/11 04:14:54;;;;;;;10.25;8.27;;;18.70;99.90;;;;;;2055098;28;20378;-68
2021/06/11 04:15:57;;;;;;;8.75;7.85;;;18.90;99.90;;;;;;2054882;28;20023;-68
2021/06/11 04:17:00;;;;;;;13.00;9.48;;;19.10;99.90;;;;;;2059503;28;20029;-68
2021/06/11 04:18:03;;;;;;;10.48;9.38;;;19.20;99.90;;;;;;2059427;28;20031;-68
2021/06/11 04:19:09;;;;;;;10.98;9.27;;;19.40;99.90;;;;;;2055126;28;20031;-68
2021/06/11 04:20:15;;;;;;;9.90;8.93;;;19.60;99.90;;;;;;2062872;28;20541;-68
2021/06/11 04:21:23;;;;;;;11.80;9.27;;;19.70;99.90;;;;;;2063343;28;20031;-68
2021/06/11 04:22:45;;;;;;;9.65;8.73;;;19.90;99.90;;;;;;2062816;28;20046;-68
2021/06/11 04:23:46;;;;;;;13.48;10.32;;;20.00;99.90;;;;;;2061556;28;20019;-68
2021/06/11 04:24:48;;;;;;;11.80;9.32;;;20.20;99.90;;;;;;2062829;28;20097;-68
2021/06/11 04:25:51;;;;;;;10.40;9.30;;;20.20;99.90;;;;;;2061411;28;20046;-68
2021/06/11 04:26:55;;;;;;;8.38;7.68;;;20.30;99.90;;;;;;2055208;28;20034;-68
2021/06/11 04:27:58;;;;;;;9.23;8.10;;;20.40;99.90;;;;;;2059284;28;20049;-68
2021/06/11 04:29:08;;;;;;;10.57;7.55;;;20.40;99.90;;;;;;2062175;28;20128;-68
2021/06/11 04:30:10;;;;;;;8.70;7.88;;;20.40;99.90;;;;;;2062611;28;20030;-68
2021/06/11 04:31:11;;;;;;;10.52;9.35;;;20.30;99.90;;;;;;2063921;28;20031;-68
2021/06/11 04:32:12;;;;;;;10.35;8.70;;;20.40;99.90;;;;;;2066334;28;20121;-68
2021/06/11 04:33:23;;;;;;;9.32;8.43;;;20.40;99.90;;;;;;2063994;28;20018;-68
2021/06/11 04:34:24;;;;;;;9.30;7.50;;;20.40;99.90;;;;;;2063597;28;20413;-68
2021/06/11 04:35:27;;;;;;;9.20;8.15;;;20.40;99.90;;;;;;2063221;28;20500;-68
2021/06/11 04:36:28;;;;;;;11.02;9.93;;;20.40;99.90;;;;;;2059536;28;20076;-69
2021/06/11 04:37:29;;;;;;;9.80;7.72;;;20.40;99.90;;;;;;2064420;28;20032;-68
2021/06/11 04:38:55;;;;;;;9.25;7.57;;;20.50;99.90;;;;;;2063833;28;20025;-68
2021/06/11 04:39:55;;;;;;;9.13;7.07;;;20.50;99.90;;;;;;2068881;28;20022;-68
2021/06/11 04:40:56;;;;;;;12.93;7.88;;;20.50;99.90;;;;;;2061956;28;20163;-68
2021/06/11 04:41:57;;;;;;;10.18;7.85;;;20.60;99.90;;;;;;2069097;28;20033;-68
2021/06/11 04:42:57;;;;;;;11.98;7.88;;;20.70;99.90;;;;;;2062627;28;20084;-68
2021/06/11 04:44:00;;;;;;;10.35;8.88;;;20.70;99.90;;;;;;2062743;28;20101;-68
2021/06/11 04:45:01;;;;;;;9.52;8.02;;;20.80;99.90;;;;;;2061960;28;20557;-68
2021/06/11 04:46:01;;;;;;;8.90;8.10;;;20.80;99.90;;;;;;2058086;28;20388;-68
2021/06/11 04:47:02;;;;;;;8.68;7.82;;;20.90;99.90;;;;;;2058198;28;20034;-68
2021/06/11 04:48:04;;;;;;;9.50;8.32;;;20.90;99.90;;;;;;2060033;28;20053;-68
2021/06/11 04:49:05;;;;;;;8.63;7.57;;;21.00;99.90;;;;;;2055039;28;20034;-68
2021/06/11 04:50:06;;;;;;;8.43;7.72;;;21.10;99.90;;;;;;2059330;28;20027;-68
2021/06/11 04:51:07;;;;;;;7.20;6.55;;;21.20;99.90;;;;;;2057157;28;20089;-69
2021/06/11 04:52:08;;;;;;;9.02;8.05;;;21.20;99.90;;;;;;2058820;28;20030;-68
2021/06/11 04:53:08;;;;;;;10.52;8.10;;;21.30;99.90;;;;;;2057209;28;20098;-69
2021/06/11 04:54:09;;;;;;;11.65;8.05;;;21.40;99.90;;;;;;2060326;28;20480;-68
2021/06/11 04:55:10;;;;;;;10.27;8.10;;;21.50;99.90;;;;;;2057829;28;20395;-69
2021/06/11 04:56:11;;;;;;;8.95;7.95;;;21.60;99.90;;;;;;2057000;28;20050;-68
2021/06/11 04:57:12;;;;;;;8.60;7.72;;;21.60;99.90;;;;;;2059684;28;20398;-68
2021/06/11 04:58:17;;;;;;;8.82;7.28;;;21.70;99.90;;;;;;2057929;28;20106;-68
2021/06/11 04:59:18;;;;;;;9.05;8.00;;;21.80;99.90;;;;;;2059351;28;20023;-68
2021/06/11 05:00:19;;;;;;;9.57;7.38;;;21.80;99.90;;;;;;2058036;28;20027;-69
2021/06/11 05:01:19;;;;;;;9.30;7.30;;;21.90;99.90;;;;;;2057190;28;20474;-68
2021/06/11 05:02:20;;;;;;;8.95;7.20;;;22.00;99.90;;;;;;2054664;28;20425;-69
2021/06/11 05:03:21;;;;;;;8.30;7.50;;;22.10;99.90;;;;;;2055138;28;20029;-69
2021/06/11 05:04:23;;;;;;;8.43;7.57;;;22.10;99.90;;;;;;2058288;28;20019;-69
2021/06/11 05:05:23;;;;;;;8.23;7.50;;;22.20;99.90;;;;;;2064043;28;20030;-68
2021/06/11 05:06:24;;;;;;;9.48;8.52;;;22.30;99.90;;;;;;2063760;28;20033;-68
2021/06/11 05:07:25;;;;;;;11.18;9.18;;;22.30;99.90;;;;;;2063770;28;20457;-68
2021/06/11 05:08:25;;;;;;;10.10;8.20;;;22.40;99.90;;;;;;2063650;28;20026;-69
2021/06/11 05:09:26;;;;;;;10.23;8.73;;;22.50;99.90;;;;;;2064211;28;20022;-69
2021/06/11 05:10:27;;;;;;;10.77;8.20;;;22.60;99.90;;;;;;2063475;28;20032;-69
2021/06/11 05:11:27;;;;;;;9.48;8.43;;;22.60;99.90;;;;;;2063554;28;20018;-69
2021/06/11 05:12:28;;;;;;;18.27;9.48;;;22.70;99.90;;;;;;2063515;28;20022;-69
2021/06/11 05:13:29;;;;;;;10.77;8.23;;;22.70;99.90;;;;;;2063804;28;20064;-69
2021/06/11 05:14:30;;;;;;;10.27;8.57;;;22.80;99.90;;;;;;2063543;28;20021;-69
2021/06/11 05:15:30;;;;;;;9.55;8.52;;;22.90;99.90;;;;;;2064101;28;20024;-69
2021/06/11 05:16:31;;;;;;;11.18;9.30;;;22.90;99.90;;;;;;2062228;28;20471;-69
2021/06/11 05:17:32;;;;;;;12.23;9.05;;;23.00;99.90;;;;;;2063265;28;20022;-69
2021/06/11 05:18:33;;;;;;;10.48;8.85;;;23.10;99.90;;;;;;2063021;28;20033;-69
2021/06/11 05:19:33;;;;;;;10.75;9.65;;;23.20;99.90;;;;;;2063857;28;20026;-69
2021/06/11 05:20:37;;;;;;;12.15;10.02;;;23.20;99.90;;;;;;2063358;28;20041;-69
2021/06/11 05:21:38;;;;;;;13.82;9.43;;;23.30;99.90;;;;;;2062412;28;20027;-69
2021/06/11 05:22:38;;;;;;;9.73;8.73;;;23.30;99.90;;;;;;2063496;28;20034;-69
2021/06/11 05:23:39;;;;;;;10.95;8.75;;;23.40;99.90;;;;;;2063265;28;20031;-69
2021/06/11 05:24:39;;;;;;;9.75;8.38;;;23.50;99.90;;;;;;2062202;28;20478;-69
2021/06/11 05:25:40;;;;;;;11.05;9.45;;;23.50;99.90;;;;;;2061774;28;20019;-69
2021/06/11 05:26:40;;;;;;;10.18;8.93;;;23.60;99.90;;;;;;2063439;28;20498;-69
2021/06/11 05:27:41;;;;;;;10.07;9.23;;;23.70;99.50;;;;;;2063989;28;20105;-69
2021/06/11 05:28:42;;;;;;;10.57;8.07;;;23.70;99.40;;;;;;2063700;28;20556;-69